Time;durP1;ratioP1;P1;durP2;ratioP2;P2;SDS_P1;SDS_P2;PMS_P1;PMS_P2;Temp;Humidity;BMP_temperature;BMP_pressure;BME280_temperature;BME280_humidity;BME280_pressure;Samples;Min_cycle;Max_cycle;Signal;HPM_P1;HPM_P2
2023/05/03 00:00:50;;;;;;;2.17;0.70;;;19.80;57.00;;;;;;5115755;28;20071;-72
2023/05/03 00:03:15;;;;;;;3.17;0.75;;;19.70;56.80;;;;;;5116723;28;20122;-72
2023/05/03 00:05:41;;;;;;;3.63;0.88;;;19.70;56.80;;;;;;5114981;28;20054;-72
2023/05/03 00:08:06;;;;;;;2.42;1.00;;;19.70;56.80;;;;;;5115854;28;20036;-72
2023/05/03 00:10:32;;;;;;;2.25;0.82;;;19.70;56.90;;;;;;5115052;28;20555;-72
2023/05/03 00:12:57;;;;;;;2.95;0.80;;;19.70;56.80;;;;;;5116592;28;20118;-72
2023/05/03 00:15:23;;;;;;;2.53;0.60;;;19.70;56.80;;;;;;5114549;28;20495;-72
2023/05/03 00:17:49;;;;;;;2.72;0.75;;;19.70;56.80;;;;;;5115134;28;20501;-72
2023/05/03 00:20:14;;;;;;;2.67;0.80;;;19.70;56.80;;;;;;5115158;28;20043;-72
2023/05/03 00:22:40;;;;;;;2.30;0.80;;;19.70;56.70;;;;;;5116516;28;20042;-72
2023/05/03 00:25:07;;;;;;;3.40;0.75;;;19.70;56.80;;;;;;5115794;28;20051;-72
2023/05/03 00:27:33;;;;;;;1.23;0.65;;;19.70;56.80;;;;;;5115927;28;20044;-72
2023/05/03 00:29:59;;;;;;;2.00;0.77;;;19.70;56.80;;;;;;5114302;28;20088;-72
2023/05/03 00:32:24;;;;;;;2.95;0.70;;;19.70;56.80;;;;;;5116536;28;20122;-72
2023/05/03 00:34:54;;;;;;;2.38;0.80;;;19.60;56.80;;;;;;5115109;28;20035;-72
2023/05/03 00:37:20;;;;;;;2.55;0.90;;;19.60;56.80;;;;;;5115864;28;20044;-72
2023/05/03 00:39:45;;;;;;;1.38;0.70;;;19.60;56.80;;;;;;5114475;28;20043;-72
2023/05/03 00:42:11;;;;;;;2.17;0.80;;;19.60;56.80;;;;;;5115111;28;20043;-72
2023/05/03 00:44:36;;;;;;;3.08;0.90;;;19.60;56.80;;;;;;5115937;28;20483;-72
2023/05/03 00:47:02;;;;;;;1.45;0.88;;;19.60;56.80;;;;;;5114389;28;20518;-71
2023/05/03 00:49:27;;;;;;;1.80;0.68;;;19.60;56.80;;;;;;5113700;28;20149;-71
2023/05/03 00:51:53;;;;;;;3.78;0.70;;;19.60;56.80;;;;;;5114509;28;20419;-72
2023/05/03 00:54:19;;;;;;;2.75;0.82;;;19.60;56.70;;;;;;5115223;28;20126;-71
2023/05/03 00:56:44;;;;;;;2.78;0.75;;;19.50;56.70;;;;;;5114019;28;20054;-71
2023/05/03 00:59:11;;;;;;;2.05;0.70;;;19.60;56.70;;;;;;5097265;28;20526;-72
2023/05/03 01:01:36;;;;;;;2.83;0.70;;;19.50;56.60;;;;;;5115459;28;20422;-71
2023/05/03 01:04:04;;;;;;;1.67;0.70;;;19.50;56.60;;;;;;5114766;28;20522;-72
2023/05/03 01:06:37;;;;;;;1.63;0.68;;;19.50;56.60;;;;;;5113984;28;20470;-72
2023/05/03 01:09:23;;;;;;;2.20;0.88;;;19.50;56.60;;;;;;5104819;28;20066;-72
2023/05/03 01:12:12;;;;;;;2.22;0.90;;;19.50;56.60;;;;;;5093494;28;20036;-71
2023/05/03 01:15:08;;;;;;;4.68;0.90;;;19.50;56.50;;;;;;5089039;28;20104;-72
2023/05/03 01:17:38;;;;;;;2.85;0.82;;;19.50;56.50;;;;;;5114596;28;20075;-71
2023/05/03 01:20:09;;;;;;;3.42;0.90;;;19.50;56.60;;;;;;5108097;28;20503;-72
2023/05/03 01:22:55;;;;;;;1.20;0.60;;;19.50;56.60;;;;;;5094840;28;20483;-73
2023/05/03 01:25:20;;;;;;;2.35;0.80;;;19.40;56.50;;;;;;5101385;28;20054;-72
2023/05/03 01:27:46;;;;;;;3.55;0.90;;;19.40;56.50;;;;;;5115148;28;20040;-71
2023/05/03 01:30:12;;;;;;;2.80;0.82;;;19.40;56.50;;;;;;5114648;28;20133;-72
2023/05/03 01:32:56;;;;;;;2.83;0.80;;;19.40;56.50;;;;;;5113369;28;20118;-72
2023/05/03 01:35:42;;;;;;;2.40;0.85;;;19.40;56.50;;;;;;5114438;28;20402;-71
2023/05/03 01:38:08;;;;;;;2.33;0.90;;;19.40;56.40;;;;;;5114170;27;20044;-72
2023/05/03 01:40:41;;;;;;;1.85;0.60;;;19.40;56.40;;;;;;5104277;28;20135;-72
2023/05/03 01:43:08;;;;;;;3.00;0.82;;;19.40;56.40;;;;;;5109793;28;20075;-72
2023/05/03 01:45:35;;;;;;;2.25;1.00;;;19.40;56.30;;;;;;5086517;28;20070;-72
2023/05/03 01:48:00;;;;;;;3.05;0.85;;;19.40;56.40;;;;;;5076314;28;20044;-72
2023/05/03 01:50:26;;;;;;;2.42;0.75;;;19.40;56.40;;;;;;5094324;28;20171;-72
2023/05/03 01:52:52;;;;;;;1.85;0.70;;;19.30;56.30;;;;;;5091548;28;20047;-72
2023/05/03 01:55:17;;;;;;;1.67;0.60;;;19.30;56.20;;;;;;5094132;28;20047;-72
2023/05/03 01:57:43;;;;;;;1.10;0.60;;;19.30;56.20;;;;;;5092817;28;20170;-72
2023/05/03 02:00:09;;;;;;;1.77;0.77;;;19.30;56.20;;;;;;5092960;28;20067;-71
2023/05/03 02:02:35;;;;;;;1.33;0.60;;;19.30;56.20;;;;;;5092983;28;20372;-72
2023/05/03 02:05:00;;;;;;;1.60;0.60;;;19.30;56.20;;;;;;5093215;28;20615;-71
2023/05/03 02:07:26;;;;;;;1.20;0.82;;;19.30;56.20;;;;;;5106231;28;20632;-72
2023/05/03 02:09:52;;;;;;;4.22;0.88;;;19.30;56.20;;;;;;5111785;28;20039;-71
2023/05/03 02:12:17;;;;;;;1.15;0.60;;;19.30;56.10;;;;;;5111504;28;20048;-71
2023/05/03 02:14:43;;;;;;;3.42;1.08;;;19.30;56.00;;;;;;5113063;28;20409;-72
2023/05/03 02:17:09;;;;;;;1.55;0.70;;;19.30;56.10;;;;;;5093703;28;20042;-72
2023/05/03 02:19:35;;;;;;;2.47;0.63;;;19.30;56.10;;;;;;5093867;28;20062;-72
2023/05/03 02:22:00;;;;;;;2.38;0.70;;;19.30;56.10;;;;;;5110526;28;20402;-72
2023/05/03 02:24:26;;;;;;;2.15;0.75;;;19.30;56.00;;;;;;5114000;28;20035;-72
2023/05/03 02:26:51;;;;;;;1.60;0.70;;;19.20;55.90;;;;;;5113336;28;20433;-72
2023/05/03 02:29:17;;;;;;;1.65;0.77;;;19.20;55.90;;;;;;5113804;28;20039;-72
2023/05/03 02:31:43;;;;;;;2.13;0.60;;;19.20;55.80;;;;;;5113665;28;20039;-73
2023/05/03 02:34:08;;;;;;;1.60;0.50;;;19.20;55.90;;;;;;5112839;28;20048;-72
2023/05/03 02:36:34;;;;;;;2.00;0.82;;;19.20;55.90;;;;;;5098292;28;20044;-73
2023/05/03 02:38:59;;;;;;;3.15;1.10;;;19.20;55.80;;;;;;5091679;28;20433;-73
2023/05/03 02:41:26;;;;;;;2.40;0.70;;;19.20;55.70;;;;;;5092664;28;20098;-72
2023/05/03 02:43:51;;;;;;;2.25;0.60;;;19.20;55.80;;;;;;5093872;28;20063;-72
2023/05/03 02:46:17;;;;;;;1.40;0.50;;;19.20;55.90;;;;;;5093124;28;20040;-72
2023/05/03 02:48:42;;;;;;;1.50;0.52;;;19.20;55.90;;;;;;5092653;28;20108;-72
2023/05/03 02:51:08;;;;;;;3.60;0.60;;;19.20;55.90;;;;;;5093026;28;20051;-72
2023/05/03 02:53:33;;;;;;;1.20;0.57;;;19.20;55.90;;;;;;5093256;28;20111;-72
2023/05/03 02:55:59;;;;;;;1.67;0.70;;;19.20;55.80;;;;;;5099682;28;20123;-72
2023/05/03 02:58:25;;;;;;;1.42;0.60;;;19.20;55.80;;;;;;5113375;28;20040;-72
2023/05/03 03:00:51;;;;;;;1.27;0.60;;;19.20;55.80;;;;;;5113078;28;20062;-71
2023/05/03 03:03:16;;;;;;;1.42;0.63;;;19.20;55.80;;;;;;5112363;28;20039;-72
2023/05/03 03:05:42;;;;;;;1.40;0.50;;;19.20;55.80;;;;;;5112671;28;20043;-72
2023/05/03 03:08:08;;;;;;;1.55;0.80;;;19.20;55.90;;;;;;5112879;28;20050;-72
2023/05/03 03:10:33;;;;;;;1.15;0.45;;;19.20;55.80;;;;;;5112530;28;20046;-72
2023/05/03 03:12:59;;;;;;;2.17;0.70;;;19.20;55.70;;;;;;5113169;28;20046;-72
2023/05/03 03:15:24;;;;;;;0.93;0.40;;;19.20;55.70;;;;;;5113023;28;20061;-72
2023/05/03 03:17:50;;;;;;;1.35;0.40;;;19.20;55.60;;;;;;5112484;28;20050;-72
2023/05/03 03:20:16;;;;;;;2.38;0.68;;;19.20;55.70;;;;;;5112465;28;20040;-73
2023/05/03 03:22:42;;;;;;;1.65;0.47;;;19.20;55.60;;;;;;5112868;28;20043;-72
2023/05/03 03:25:08;;;;;;;1.00;0.50;;;19.20;55.60;;;;;;5111623;28;20071;-72
2023/05/03 03:27:34;;;;;;;2.30;0.68;;;19.20;55.60;;;;;;5111721;28;20118;-72
2023/05/03 03:29:59;;;;;;;1.88;0.70;;;19.20;55.50;;;;;;5112798;28;20126;-72
2023/05/03 03:32:25;;;;;;;1.73;0.60;;;19.20;55.50;;;;;;5109885;28;20043;-72
2023/05/03 03:34:51;;;;;;;1.10;0.50;;;19.20;55.60;;;;;;5112916;28;20039;-72
2023/05/03 03:37:16;;;;;;;2.33;0.60;;;19.20;55.60;;;;;;5109983;28;20043;-72
2023/05/03 03:39:42;;;;;;;0.98;0.50;;;19.20;56.40;;;;;;5112933;28;20067;-73
2023/05/03 03:42:09;;;;;;;1.65;0.68;;;19.20;55.60;;;;;;5111132;28;20075;-73
2023/05/03 03:44:35;;;;;;;2.03;0.60;;;19.20;55.60;;;;;;5094139;28;20050;-72
2023/05/03 03:47:00;;;;;;;1.85;0.57;;;19.20;55.60;;;;;;5112093;28;20044;-73
2023/05/03 03:49:26;;;;;;;0.70;0.50;;;19.20;55.60;;;;;;5112735;28;20542;-73
2023/05/03 03:51:51;;;;;;;1.10;0.40;;;19.20;55.60;;;;;;5111734;28;20031;-73
2023/05/03 03:54:17;;;;;;;1.45;0.50;;;19.20;55.60;;;;;;5112458;28;20054;-72
2023/05/03 03:56:43;;;;;;;1.20;0.50;;;19.20;55.60;;;;;;5112742;28;20044;-72
2023/05/03 03:59:08;;;;;;;1.65;0.50;;;19.30;55.70;;;;;;5111699;28;20079;-72
2023/05/03 04:01:34;;;;;;;1.50;0.60;;;19.30;55.60;;;;;;5096637;28;20052;-73
2023/05/03 04:03:59;;;;;;;1.63;0.70;;;19.30;55.60;;;;;;5086840;28;20040;-73
2023/05/03 04:06:25;;;;;;;1.48;0.65;;;19.30;55.60;;;;;;5090220;28;20036;-73
2023/05/03 04:08:51;;;;;;;1.10;0.52;;;19.30;55.50;;;;;;5091821;28;20097;-73
2023/05/03 04:11:17;;;;;;;1.08;0.40;;;19.30;55.50;;;;;;5091779;28;20039;-72
2023/05/03 04:13:42;;;;;;;1.58;0.50;;;19.40;55.60;;;;;;5091162;28;20414;-72
2023/05/03 04:16:08;;;;;;;1.10;0.50;;;19.40;55.60;;;;;;5091956;28;20039;-72
2023/05/03 04:18:34;;;;;;;0.98;0.57;;;19.40;55.50;;;;;;5092171;28;20043;-72
2023/05/03 04:20:59;;;;;;;1.67;0.50;;;19.40;55.50;;;;;;5093986;28;20031;-73
2023/05/03 04:23:25;;;;;;;2.00;0.50;;;19.40;55.50;;;;;;5112512;28;20039;-73
2023/05/03 04:25:51;;;;;;;2.17;0.57;;;19.40;55.40;;;;;;5111618;28;20062;-73
2023/05/03 04:28:17;;;;;;;1.13;0.50;;;19.40;55.40;;;;;;5111580;28;20054;-72
2023/05/03 04:30:46;;;;;;;1.50;0.50;;;19.50;55.40;;;;;;5111060;28;20051;-72
2023/05/03 04:33:12;;;;;;;1.52;0.50;;;19.50;55.40;;;;;;5091683;28;20117;-73
2023/05/03 04:35:38;;;;;;;1.17;0.50;;;19.50;55.30;;;;;;5090931;28;20128;-73
2023/05/03 04:38:03;;;;;;;1.10;0.50;;;19.50;55.30;;;;;;5091685;28;20119;-73
2023/05/03 04:40:29;;;;;;;1.48;0.50;;;19.60;55.40;;;;;;5091350;28;20122;-72
2023/05/03 04:42:56;;;;;;;1.33;0.43;;;19.60;55.30;;;;;;5091520;28;20036;-73
2023/05/03 04:45:22;;;;;;;1.08;0.40;;;19.60;55.30;;;;;;5094212;28;20044;-72
2023/05/03 04:47:48;;;;;;;1.73;0.55;;;19.60;55.30;;;;;;5094599;28;20041;-72
2023/05/03 04:50:13;;;;;;;2.05;0.50;;;19.60;55.30;;;;;;5094998;28;20438;-73
2023/05/03 04:52:39;;;;;;;1.05;0.45;;;19.60;55.30;;;;;;5095802;28;20073;-72
2023/05/03 04:55:05;;;;;;;2.00;0.50;;;19.70;55.30;;;;;;5094281;28;20043;-72
2023/05/03 04:57:31;;;;;;;1.70;0.50;;;19.70;55.20;;;;;;5095297;28;20127;-72
2023/05/03 04:59:57;;;;;;;0.80;0.40;;;19.70;55.20;;;;;;5095050;28;20052;-73
2023/05/03 05:02:23;;;;;;;1.00;0.50;;;19.70;55.20;;;;;;5094827;28;20172;-73
2023/05/03 05:04:48;;;;;;;1.52;0.40;;;19.70;55.20;;;;;;5095239;28;20073;-73
2023/05/03 05:07:14;;;;;;;1.00;0.47;;;19.70;55.10;;;;;;5095061;28;20571;-72
2023/05/03 05:09:39;;;;;;;1.42;0.50;;;19.70;55.10;;;;;;5094471;28;20040;-72
2023/05/03 05:12:05;;;;;;;1.08;0.40;;;19.70;55.10;;;;;;5094736;28;20040;-72
2023/05/03 05:14:31;;;;;;;1.27;0.50;;;19.70;55.10;;;;;;5094103;28;20093;-73
2023/05/03 05:16:57;;;;;;;2.92;0.40;;;19.70;55.10;;;;;;5094341;28;20051;-73
2023/05/03 05:19:22;;;;;;;2.30;0.40;;;19.80;55.10;;;;;;5114002;28;20043;-73
2023/05/03 05:21:48;;;;;;;0.82;0.40;;;19.80;55.10;;;;;;5107045;28;20135;-73
2023/05/03 05:24:13;;;;;;;0.80;0.40;;;19.80;55.00;;;;;;5093503;28;20490;-72
2023/05/03 05:26:41;;;;;;;1.77;0.47;;;19.80;55.10;;;;;;5094137;28;20109;-71
2023/05/03 05:29:06;;;;;;;1.15;0.57;;;19.80;55.10;;;;;;5093505;28;20123;-72
2023/05/03 05:31:32;;;;;;;0.60;0.38;;;19.80;55.00;;;;;;5094146;28;20115;-72
2023/05/03 05:33:57;;;;;;;0.65;0.32;;;19.80;55.00;;;;;;5094402;28;20073;-72
2023/05/03 05:36:23;;;;;;;1.85;0.60;;;19.80;55.00;;;;;;5094648;28;20032;-72
2023/05/03 05:38:49;;;;;;;1.27;0.45;;;19.80;55.00;;;;;;5093764;28;20392;-72
2023/05/03 05:41:14;;;;;;;1.02;0.50;;;19.80;54.90;;;;;;5094489;28;20070;-71
2023/05/03 05:43:40;;;;;;;1.58;0.50;;;19.80;54.90;;;;;;5094591;28;20039;-71
2023/05/03 05:46:05;;;;;;;1.33;0.40;;;19.80;55.00;;;;;;5093360;28;20044;-72
2023/05/03 05:48:31;;;;;;;1.98;0.47;;;19.90;55.00;;;;;;5094545;28;20540;-72
2023/05/03 05:50:56;;;;;;;0.70;0.40;;;19.90;55.00;;;;;;5093302;28;20500;-72
2023/05/03 05:53:23;;;;;;;2.20;0.50;;;19.90;54.90;;;;;;5094492;28;20356;-72
2023/05/03 05:55:49;;;;;;;0.82;0.45;;;19.90;55.00;;;;;;5093703;28;20126;-73
2023/05/03 05:58:14;;;;;;;0.93;0.35;;;19.90;55.00;;;;;;5090934;28;20118;-72
2023/05/03 06:00:40;;;;;;;0.70;0.40;;;19.90;54.90;;;;;;5094336;28;20044;-72
2023/05/03 06:03:06;;;;;;;0.80;0.38;;;19.90;54.90;;;;;;5093048;28;20040;-65
2023/05/03 06:05:31;;;;;;;1.40;0.30;;;19.90;54.90;;;;;;5091872;28;20073;-69
2023/05/03 06:07:57;;;;;;;2.45;0.60;;;19.90;54.90;;;;;;5094098;28;20403;-68
2023/05/03 06:10:23;;;;;;;3.92;0.47;;;19.90;54.90;;;;;;5094362;28;20047;-68
2023/05/03 06:12:48;;;;;;;3.55;0.68;;;19.90;54.80;;;;;;5093428;28;20079;-68
2023/05/03 06:15:14;;;;;;;2.95;0.55;;;20.00;54.80;;;;;;5093825;28;20504;-68
2023/05/03 06:17:40;;;;;;;2.70;0.57;;;20.00;54.90;;;;;;5094306;28;20047;-69
2023/05/03 06:20:10;;;;;;;2.55;0.50;;;20.00;54.90;;;;;;5091696;28;20454;-69
2023/05/03 06:22:36;;;;;;;2.13;0.47;;;20.00;54.90;;;;;;5094226;28;20082;-72
2023/05/03 06:25:02;;;;;;;3.33;0.52;;;20.00;55.00;;;;;;5092461;28;20596;-76
2023/05/03 06:27:28;;;;;;;2.10;0.70;;;20.00;55.10;;;;;;5092610;28;20036;-70
2023/05/03 06:29:53;;;;;;;2.92;0.50;;;20.00;55.20;;;;;;5092749;28;20043;-73
2023/05/03 06:32:20;;;;;;;3.83;0.57;;;20.00;55.40;;;;;;5091886;28;20063;-72
2023/05/03 06:34:47;;;;;;;6.60;0.93;;;20.10;55.70;;;;;;5093002;28;20518;-75
2023/05/03 06:37:14;;;;;;;1.67;0.40;;;20.10;55.80;;;;;;5093405;28;20036;-75
2023/05/03 06:39:39;;;;;;;6.15;0.60;;;20.10;55.80;;;;;;5093644;28;20044;-75
2023/05/03 06:42:06;;;;;;;2.60;0.60;;;20.10;55.90;;;;;;5091313;28;20044;-73
2023/05/03 06:44:32;;;;;;;2.58;0.60;;;20.10;56.00;;;;;;5093931;28;20127;-73
2023/05/03 06:46:57;;;;;;;1.85;0.57;;;20.20;56.10;;;;;;5092062;28;20123;-72
2023/05/03 06:49:23;;;;;;;3.42;0.63;;;20.20;56.20;;;;;;5092644;28;20040;-75
2023/05/03 06:51:49;;;;;;;2.70;0.60;;;20.20;56.20;;;;;;5093682;28;20044;-66
2023/05/03 06:54:14;;;;;;;2.22;0.80;;;20.20;56.20;;;;;;5091748;28;20048;-72
2023/05/03 06:56:40;;;;;;;2.83;0.60;;;20.20;56.30;;;;;;5092183;28;20036;-72
2023/05/03 06:59:07;;;;;;;3.35;0.70;;;20.20;56.30;;;;;;5093261;28;20070;-72
2023/05/03 07:01:32;;;;;;;3.35;0.60;;;20.20;56.30;;;;;;5091497;28;20037;-67
2023/05/03 07:03:58;;;;;;;4.38;0.70;;;20.30;56.40;;;;;;5091732;28;20036;-67
2023/05/03 07:06:23;;;;;;;5.32;0.52;;;20.30;56.40;;;;;;5092612;28;20093;-70
2023/05/03 07:08:50;;;;;;;4.22;0.60;;;20.30;56.40;;;;;;5091301;28;20048;-68
2023/05/03 07:11:16;;;;;;;1.88;0.50;;;20.30;56.40;;;;;;5092813;28;20078;-70
2023/05/03 07:13:42;;;;;;;2.50;0.50;;;20.30;56.30;;;;;;5089527;28;20048;-67
2023/05/03 07:16:07;;;;;;;5.78;0.80;;;20.30;56.30;;;;;;5071940;28;20119;-68
2023/05/03 07:18:33;;;;;;;2.67;0.50;;;20.30;56.10;;;;;;5072905;28;20036;-69
2023/05/03 07:21:04;;;;;;;3.08;0.70;;;20.30;55.90;;;;;;5088333;28;20523;-70
2023/05/03 07:23:30;;;;;;;3.00;0.70;;;20.40;55.90;;;;;;5081305;28;20146;-70
2023/05/03 07:25:56;;;;;;;2.35;0.50;;;20.40;55.80;;;;;;5091413;28;20555;-70
2023/05/03 07:28:22;;;;;;;3.22;0.60;;;20.40;55.90;;;;;;5077891;28;20121;-72
2023/05/03 07:30:47;;;;;;;3.42;0.77;;;20.40;55.90;;;;;;5090728;28;20066;-70
2023/05/03 07:33:13;;;;;;;3.03;0.70;;;20.40;56.00;;;;;;5081261;28;20438;-70
2023/05/03 07:35:38;;;;;;;2.72;0.60;;;20.40;56.00;;;;;;5091117;28;20391;-70
2023/05/03 07:38:04;;;;;;;2.17;0.68;;;20.40;56.10;;;;;;5084482;28;20040;-71
2023/05/03 07:40:31;;;;;;;1.90;0.60;;;20.50;56.20;;;;;;5089004;28;20052;-69
2023/05/03 07:42:58;;;;;;;2.83;0.82;;;20.40;56.20;;;;;;5086719;28;20086;-69
2023/05/03 07:45:24;;;;;;;2.90;0.60;;;20.50;56.20;;;;;;5087898;28;20040;-69
2023/05/03 07:47:50;;;;;;;2.63;0.55;;;20.50;56.20;;;;;;5091743;28;20043;-69
2023/05/03 07:50:16;;;;;;;5.25;0.60;;;20.50;55.90;;;;;;5092046;28;20054;-68
2023/05/03 07:52:42;;;;;;;3.63;0.82;;;20.50;55.80;;;;;;5091116;28;20130;-70
2023/05/03 07:55:08;;;;;;;1.88;0.55;;;20.50;55.70;;;;;;5092152;28;20043;-70
2023/05/03 07:57:33;;;;;;;3.20;0.60;;;20.50;55.70;;;;;;5090554;28;20052;-69
2023/05/03 07:59:59;;;;;;;6.00;0.93;;;20.50;56.50;;;;;;5091371;28;20369;-70
2023/05/03 08:02:25;;;;;;;3.13;0.70;;;20.50;55.80;;;;;;5090809;28;20047;-69
2023/05/03 08:04:50;;;;;;;4.10;0.70;;;20.50;55.80;;;;;;5091559;28;20539;-69
2023/05/03 08:07:18;;;;;;;2.45;0.50;;;20.50;55.80;;;;;;5091969;28;20040;-71
2023/05/03 08:09:44;;;;;;;;;;;20.50;55.70;;;;;;5092406;28;20044;-69
2023/05/03 08:12:09;;;;;;;2.55;0.60;;;20.50;55.80;;;;;;5091298;28;19920;-69
2023/05/03 08:14:36;;;;;;;3.10;0.73;;;20.50;55.80;;;;;;5092280;28;20313;-69
2023/05/03 08:17:03;;;;;;;2.53;0.60;;;20.50;55.70;;;;;;5092133;28;20036;-68
2023/05/03 08:19:29;;;;;;;0.82;0.63;;;20.50;55.70;;;;;;5093481;28;20047;-69
2023/05/03 08:21:55;;;;;;;4.10;0.50;;;20.50;55.70;;;;;;5095854;28;20040;-70
2023/05/03 08:24:21;;;;;;;2.38;0.88;;;20.50;56.40;;;;;;5095950;28;20101;-69
2023/05/03 08:26:47;;;;;;;3.08;0.60;;;20.50;55.60;;;;;;5095401;28;20060;-71
2023/05/03 08:29:14;;;;;;;2.17;0.50;;;20.50;55.70;;;;;;5098361;28;20392;-69
2023/05/03 08:31:39;;;;;;;3.63;0.60;;;20.50;55.60;;;;;;5116244;28;20089;-70
2023/05/03 08:34:06;;;;;;;2.38;0.50;;;20.50;55.60;;;;;;5115069;28;20039;-69
2023/05/03 08:36:32;;;;;;;1.88;0.40;;;20.50;55.60;;;;;;5116031;28;20039;-68
2023/05/03 08:38:58;;;;;;;2.60;0.60;;;20.50;55.50;;;;;;5115495;28;20044;-70
2023/05/03 08:41:28;;;;;;;2.67;0.50;;;20.50;55.60;;;;;;5115558;28;20051;-70
2023/05/03 08:43:54;;;;;;;1.83;0.50;;;20.50;55.40;;;;;;5115762;28;20039;-70
2023/05/03 08:46:19;;;;;;;2.58;0.82;;;20.50;55.40;;;;;;5115829;28;20506;-70
2023/05/03 08:48:49;;;;;;;3.80;0.73;;;20.50;55.30;;;;;;5113788;28;20074;-70
2023/05/03 08:51:16;;;;;;;1.88;0.50;;;20.50;55.30;;;;;;5114228;28;20101;-70
2023/05/03 08:53:41;;;;;;;2.95;0.55;;;20.50;55.30;;;;;;5115015;28;20044;-70
2023/05/03 08:56:11;;;;;;;3.70;0.70;;;20.50;55.30;;;;;;5114976;28;20130;-70
2023/05/03 08:58:37;;;;;;;1.70;0.50;;;20.50;55.30;;;;;;5115851;28;20046;-70
2023/05/03 09:01:06;;;;;;;1.50;0.40;;;20.40;55.20;;;;;;5113037;28;20044;-70
2023/05/03 09:03:32;;;;;;;2.55;0.50;;;20.50;55.20;;;;;;5115821;28;20101;-71
2023/05/03 09:06:01;;;;;;;3.42;0.70;;;20.40;55.10;;;;;;5113865;28;20062;-71
2023/05/03 09:08:27;;;;;;;;;;;20.40;55.10;;;;;;5115098;28;20036;-71
2023/05/03 09:10:52;;;;;;;1.42;0.50;;;20.40;55.10;;;;;;5115092;28;19927;-71
2023/05/03 09:13:18;;;;;;;2.50;0.60;;;20.40;55.10;;;;;;5115573;28;20040;-71
2023/05/03 09:15:53;;;;;;;1.83;0.50;;;20.40;55.00;;;;;;5114589;28;20044;-71
2023/05/03 09:18:19;;;;;;;3.33;0.50;;;20.40;55.00;;;;;;5114163;28;20479;-71
2023/05/03 09:20:51;;;;;;;1.67;0.60;;;20.40;55.00;;;;;;5115231;28;20044;-71
2023/05/03 09:23:26;;;;;;;0.55;0.50;;;20.40;54.90;;;;;;5113029;28;20122;-69
2023/05/03 09:25:51;;;;;;;4.20;0.82;;;20.40;54.80;;;;;;5114629;28;20507;-69
2023/05/03 09:28:18;;;;;;;2.65;0.60;;;20.40;54.90;;;;;;5113818;28;20059;-68
2023/05/03 09:30:44;;;;;;;1.85;0.60;;;20.50;54.90;;;;;;5113331;28;20043;-69
2023/05/03 09:33:20;;;;;;;0.85;0.40;;;20.50;54.80;;;;;;5114750;28;20057;-69
2023/05/03 09:36:02;;;;;;;1.58;0.70;;;20.50;54.70;;;;;;5115158;28;20032;-69
2023/05/03 09:38:32;;;;;;;2.45;0.50;;;20.50;54.60;;;;;;5114654;28;20399;-70
2023/05/03 09:40:58;;;;;;;2.40;0.60;;;20.40;54.50;;;;;;5104254;28;20537;-71
2023/05/03 09:43:24;;;;;;;2.65;0.60;;;20.50;54.50;;;;;;5093619;28;20036;-69
2023/05/03 09:45:49;;;;;;;3.13;0.57;;;20.50;54.40;;;;;;5094282;28;20048;-69
2023/05/03 09:48:15;;;;;;;1.52;0.50;;;20.50;54.30;;;;;;5093430;28;20384;-71
2023/05/03 09:50:40;;;;;;;1.83;0.52;;;20.50;54.40;;;;;;5093755;28;20098;-70
2023/05/03 09:53:06;;;;;;;1.90;0.60;;;20.50;54.40;;;;;;5092903;28;20412;-70
2023/05/03 09:55:36;;;;;;;2.83;0.60;;;20.50;54.40;;;;;;5107163;28;20449;-69
2023/05/03 09:58:06;;;;;;;4.03;0.60;;;20.50;54.50;;;;;;5113641;27;20047;-70
2023/05/03 10:00:42;;;;;;;3.90;0.50;;;20.50;54.60;;;;;;5107295;28;20056;-69
2023/05/03 10:03:10;;;;;;;2.33;0.60;;;20.50;54.60;;;;;;5088565;28;20044;-69
2023/05/03 10:05:47;;;;;;;2.50;0.60;;;20.50;54.60;;;;;;5089199;28;20044;-69
2023/05/03 10:08:28;;;;;;;3.92;0.50;;;20.60;54.60;;;;;;5090731;28;20066;-69
2023/05/03 10:10:54;;;;;;;0.77;0.50;;;20.50;54.60;;;;;;5075441;28;20063;-69
2023/05/03 10:13:21;;;;;;;1.48;0.52;;;20.60;54.70;;;;;;5091494;28;20483;-71
2023/05/03 10:15:48;;;;;;;2.63;0.77;;;20.60;54.60;;;;;;5092174;28;20044;-69
2023/05/03 10:18:14;;;;;;;4.55;0.63;;;20.60;54.60;;;;;;5075052;28;20054;-69
2023/05/03 10:20:43;;;;;;;2.15;0.70;;;20.60;54.60;;;;;;5075203;28;20039;-70
2023/05/03 10:23:10;;;;;;;1.10;0.50;;;20.60;54.70;;;;;;5074581;28;20063;-70
2023/05/03 10:25:36;;;;;;;2.28;0.60;;;20.50;54.60;;;;;;5092104;28;20048;-69
2023/05/03 10:28:03;;;;;;;2.70;0.55;;;20.50;54.50;;;;;;5091451;28;20047;-72
2023/05/03 10:30:31;;;;;;;1.13;0.50;;;20.50;54.60;;;;;;5092414;28;20036;-70
2023/05/03 10:32:58;;;;;;;5.28;0.77;;;20.50;54.50;;;;;;5088540;28;20127;-70
2023/05/03 10:35:27;;;;;;;3.90;0.60;;;20.50;54.00;;;;;;5091706;28;20424;-69
2023/05/03 10:37:55;;;;;;;2.40;0.65;;;20.50;53.00;;;;;;5084917;28;20036;-69
2023/05/03 10:40:21;;;;;;;2.90;0.63;;;20.40;52.60;;;;;;5092103;28;20044;-70
2023/05/03 10:42:51;;;;;;;1.70;0.63;;;20.50;52.50;;;;;;5074912;28;20094;-67
2023/05/03 10:45:25;;;;;;;2.25;0.65;;;20.50;52.50;;;;;;5091563;28;20040;-68
2023/05/03 10:48:09;;;;;;;3.30;0.60;;;20.50;52.50;;;;;;5107058;28;20048;-67
2023/05/03 10:50:35;;;;;;;2.95;0.73;;;20.50;52.60;;;;;;5093388;28;20089;-69
2023/05/03 10:53:01;;;;;;;3.75;0.70;;;20.50;52.70;;;;;;5092860;28;20044;-68
2023/05/03 10:55:26;;;;;;;5.45;0.77;;;20.50;52.80;;;;;;5092254;28;20040;-67
2023/05/03 10:57:54;;;;;;;2.30;0.68;;;20.50;52.90;;;;;;5092837;28;20131;-68
2023/05/03 11:00:30;;;;;;;1.73;0.50;;;20.50;53.00;;;;;;5089694;28;20081;-68
2023/05/03 11:03:29;;;;;;;2.65;0.60;;;20.50;53.00;;;;;;5090337;28;20700;-68
2023/05/03 11:05:56;;;;;;;3.47;0.60;;;20.50;53.00;;;;;;5087661;28;20048;-68
2023/05/03 11:08:24;;;;;;;1.67;0.60;;;20.60;53.10;;;;;;5085343;28;20046;-68
2023/05/03 11:10:58;;;;;;;3.15;0.60;;;20.60;53.10;;;;;;5089080;28;20083;-67
2023/05/03 11:13:23;;;;;;;2.97;0.60;;;20.60;53.20;;;;;;5092278;28;20078;-67
2023/05/03 11:15:49;;;;;;;3.35;0.63;;;20.60;53.30;;;;;;5090779;28;20071;-67
2023/05/03 11:18:14;;;;;;;2.50;0.68;;;20.60;53.30;;;;;;5092330;28;20040;-68
2023/05/03 11:20:40;;;;;;;5.10;0.88;;;20.60;53.40;;;;;;5092757;28;20702;-67
2023/05/03 11:23:08;;;;;;;2.47;0.73;;;20.60;54.10;;;;;;5091531;28;20480;-62
2023/05/03 11:25:34;;;;;;;2.42;0.70;;;20.60;53.40;;;;;;5092480;28;20051;-68
2023/05/03 11:28:00;;;;;;;3.42;0.70;;;20.60;53.10;;;;;;5092312;28;20036;-67
2023/05/03 11:30:28;;;;;;;2.60;0.82;;;20.60;52.80;;;;;;5091542;28;20043;-66
2023/05/03 11:32:53;;;;;;;3.27;0.67;;;20.60;52.60;;;;;;5091332;28;20123;-66
2023/05/03 11:35:22;;;;;;;2.25;0.80;;;20.60;52.50;;;;;;5090471;28;20132;-67
2023/05/03 11:37:48;;;;;;;2.28;0.68;;;20.60;52.60;;;;;;5089309;28;20089;-68
2023/05/03 11:40:18;;;;;;;2.25;0.70;;;20.60;52.50;;;;;;5090665;28;20496;-68
2023/05/03 11:42:51;;;;;;;2.10;0.50;;;20.60;52.50;;;;;;5088968;28;20396;-68
2023/05/03 11:45:17;;;;;;;3.15;0.70;;;20.70;52.50;;;;;;5091259;28;20063;-68
2023/05/03 11:47:43;;;;;;;3.08;0.50;;;20.60;52.50;;;;;;5091582;28;20036;-68
2023/05/03 11:50:09;;;;;;;1.48;0.60;;;20.70;52.60;;;;;;5090306;28;20437;-68
2023/05/03 11:52:36;;;;;;;1.88;1.00;;;20.70;52.60;;;;;;5091093;28;20043;-67
2023/05/03 11:55:03;;;;;;;4.22;0.77;;;20.70;52.70;;;;;;5097840;28;20048;-69
2023/05/03 11:57:30;;;;;;;2.45;0.60;;;20.70;52.60;;;;;;5098482;28;20099;-68
2023/05/03 12:00:08;;;;;;;2.22;0.60;;;20.70;52.70;;;;;;5095060;28;20373;-68
2023/05/03 12:02:33;;;;;;;4.40;0.70;;;20.70;52.70;;;;;;5098233;28;20063;-69
2023/05/03 12:04:59;;;;;;;1.42;0.60;;;20.70;52.80;;;;;;5095522;28;20496;-69
2023/05/03 12:07:24;;;;;;;2.10;0.70;;;20.70;52.70;;;;;;5097646;28;20524;-71
2023/05/03 12:09:50;;;;;;;2.35;0.75;;;20.70;53.50;;;;;;5097877;28;20401;-69
2023/05/03 12:12:19;;;;;;;4.15;0.90;;;20.70;52.90;;;;;;5096593;28;20044;-69
2023/05/03 12:14:57;;;;;;;4.40;0.75;;;20.70;52.80;;;;;;5091241;28;20076;-68
2023/05/03 12:17:36;;;;;;;2.00;0.50;;;20.70;52.90;;;;;;5089074;28;20506;-68
2023/05/03 12:20:15;;;;;;;3.53;0.50;;;20.70;52.90;;;;;;5094296;28;20105;-70
2023/05/03 12:22:40;;;;;;;3.35;0.75;;;20.70;52.90;;;;;;5097080;28;20048;-69
2023/05/03 12:25:07;;;;;;;1.95;0.60;;;20.70;52.90;;;;;;5095475;28;20048;-69
2023/05/03 12:27:33;;;;;;;3.40;0.70;;;20.70;53.00;;;;;;5098854;28;20051;-69
2023/05/03 12:29:58;;;;;;;1.85;0.70;;;20.70;53.70;;;;;;5095191;28;20050;-71
2023/05/03 12:32:24;;;;;;;3.50;0.73;;;20.80;53.00;;;;;;5095320;28;20044;-69
2023/05/03 12:34:49;;;;;;;3.78;0.82;;;20.80;53.00;;;;;;5090192;28;20040;-69
2023/05/03 12:37:15;;;;;;;2.05;0.60;;;20.80;52.90;;;;;;5096274;28;20032;-68
2023/05/03 12:39:41;;;;;;;2.65;0.50;;;20.80;52.90;;;;;;5091460;28;20129;-68
2023/05/03 12:42:07;;;;;;;2.22;0.63;;;20.80;52.90;;;;;;5098593;28;20524;-69
2023/05/03 12:44:32;;;;;;;1.08;0.57;;;20.80;52.80;;;;;;5098674;28;20466;-68
2023/05/03 12:46:58;;;;;;;4.28;0.60;;;20.80;52.90;;;;;;5110747;27;20093;-69